createdAt,value
2023-03-03T00:00:01.012Z,0.95
2023-03-03T00:01:03.826Z,0.97
2023-03-03T00:02:05.893Z,1.02
2023-03-03T00:03:11.510Z,1.12
2023-03-03T00:04:13.718Z,1.09
2023-03-03T00:05:15.710Z,1.17
2023-03-03T00:06:18.693Z,1.19
2023-03-03T00:07:20.796Z,1.21
2023-03-03T00:08:22.707Z,1.23
2023-03-03T00:09:24.976Z,1.25
2023-03-03T00:10:27.678Z,1.22
2023-03-03T00:11:29.617Z,1.14
2023-03-03T00:12:34.983Z,1.16
2023-03-03T00:13:46.732Z,1.17
2023-03-03T00:14:49.148Z,1.20
2023-03-03T00:15:52.725Z,1.22
2023-03-03T00:16:56.781Z,1.24
2023-03-03T00:17:59.210Z,1.20
2023-03-03T00:19:01.384Z,1.23
2023-03-03T00:20:07.364Z,1.27
2023-03-03T00:21:24.644Z,1.29
2023-03-03T00:22:33.335Z,1.31
2023-03-03T00:23:38.214Z,1.33
2023-03-03T00:24:40.513Z,1.27
2023-03-03T00:25:44.847Z,1.32
2023-03-03T00:26:52.917Z,1.26
2023-03-03T00:27:56.919Z,1.33
2023-03-03T00:28:59.706Z,1.36
2023-03-03T00:30:03.402Z,1.01
2023-03-03T00:31:09.581Z,1.05
2023-03-03T00:32:22.611Z,1.09
2023-03-03T00:33:28.405Z,1.08
2023-03-03T00:34:33.722Z,1.02
2023-03-03T00:35:36.239Z,0.91
2023-03-03T00:36:40.744Z,1.04
2023-03-03T00:37:43.268Z,1.04
2023-03-03T00:38:46.673Z,1.16
2023-03-03T00:39:49.082Z,1.06
2023-03-03T00:40:51.286Z,1.04
2023-03-03T00:41:54.056Z,1.06
2023-03-03T00:42:59.087Z,1.07
2023-03-03T00:44:04.883Z,1.19
2023-03-03T00:45:28.284Z,1.15
2023-03-03T00:46:30.524Z,1.21
2023-03-03T00:47:42.440Z,1.17
2023-03-03T00:48:45.277Z,1.15
2023-03-03T00:49:47.180Z,1.17
2023-03-03T00:50:50.617Z,1.03
2023-03-03T00:51:54.435Z,1.15
2023-03-03T00:53:12.458Z,1.24
2023-03-03T00:54:14.655Z,1.25
2023-03-03T00:55:16.669Z,1.09
2023-03-03T00:56:19.599Z,1.15
2023-03-03T00:57:21.616Z,1.03
2023-03-03T00:58:25.193Z,1.12
2023-03-03T00:59:27.411Z,1.22
2023-03-03T01:00:29.865Z,1.09
2023-03-03T01:01:31.817Z,1.15
2023-03-03T01:02:33.864Z,1.22
2023-03-03T01:03:36.226Z,1.16
2023-03-03T01:04:41.744Z,1.23
2023-03-03T01:05:44.463Z,1.23
2023-03-03T01:06:47.348Z,1.23
2023-03-03T01:07:49.826Z,1.23
2023-03-03T01:08:51.751Z,1.23
2023-03-03T01:09:53.712Z,1.25
2023-03-03T01:10:58.998Z,1.30
2023-03-03T01:12:01.981Z,1.21
2023-03-03T01:13:06.042Z,1.28
2023-03-03T01:14:08.919Z,1.18
2023-03-03T01:15:13.642Z,1.27
2023-03-03T01:16:17.128Z,1.24
2023-03-03T01:17:19.702Z,1.21
2023-03-03T01:18:22.266Z,1.25
2023-03-03T01:19:25.241Z,1.04
2023-03-03T01:20:27.901Z,1.14
2023-03-03T01:21:29.806Z,1.17
2023-03-03T01:22:31.692Z,1.20
2023-03-03T01:23:34.883Z,1.08
2023-03-03T01:24:36.774Z,1.11
2023-03-03T01:25:39.263Z,1.05
2023-03-03T01:26:41.420Z,1.14
2023-03-03T01:27:43.296Z,1.12
2023-03-03T01:28:45.159Z,1.15
2023-03-03T01:29:47.040Z,0.97
2023-03-03T01:30:49.465Z,1.05
2023-03-03T01:31:51.611Z,1.03
2023-03-03T01:32:54.631Z,1.15
2023-03-03T01:33:56.790Z,1.04
2023-03-03T01:34:58.831Z,1.15
2023-03-03T01:36:03.000Z,0.92
2023-03-03T01:37:04.942Z,0.87
2023-03-03T01:38:07.065Z,0.89
2023-03-03T01:39:11.019Z,0.97
2023-03-03T01:40:17.062Z,1.02
2023-03-03T01:41:19.776Z,1.11
2023-03-03T01:42:22.357Z,0.95
2023-03-03T01:43:29.467Z,1.01
2023-03-03T01:44:31.584Z,1.09
2023-03-03T01:45:49.656Z,1.18
2023-03-03T01:46:58.823Z,1.19
2023-03-03T01:49:32.878Z,0.87
2023-03-03T01:50:57.270Z,0.83
2023-03-03T01:52:02.979Z,0.90
2023-03-03T01:53:08.753Z,0.99
2023-03-03T01:54:14.501Z,1.06
2023-03-03T01:55:26.328Z,1.05
2023-03-03T01:56:28.949Z,0.98
2023-03-03T01:57:35.939Z,1.05
2023-03-03T01:58:41.660Z,1.07
2023-03-03T01:59:48.340Z,0.96
2023-03-03T02:00:57.188Z,1.09
2023-03-03T02:01:59.349Z,1.02
2023-03-03T02:03:01.972Z,1.14
2023-03-03T02:04:05.358Z,1.16
2023-03-03T02:05:09.490Z,1.00
2023-03-03T02:06:17.947Z,1.08
2023-03-03T02:07:22.491Z,0.94
2023-03-03T02:08:28.397Z,1.03
2023-03-03T02:09:50.980Z,0.88
2023-03-03T02:10:55.238Z,0.95
2023-03-03T02:12:00.749Z,1.08
2023-03-03T02:13:02.987Z,1.15
2023-03-03T02:14:04.972Z,1.15
2023-03-03T02:15:19.404Z,0.97
2023-03-03T02:16:21.780Z,0.98
2023-03-03T02:17:24.591Z,1.08
2023-03-03T02:18:27.863Z,1.09
2023-03-03T02:19:38.969Z,1.12
2023-03-03T02:20:47.754Z,0.95
2023-03-03T02:21:49.972Z,1.04
2023-03-03T02:23:08.233Z,1.18
2023-03-03T02:24:16.969Z,1.01
2023-03-03T02:26:36.402Z,1.05
2023-03-03T02:27:39.238Z,0.90
2023-03-03T02:28:42.046Z,0.98
2023-03-03T02:29:44.071Z,1.06
2023-03-03T02:30:46.460Z,1.13
2023-03-03T02:31:48.619Z,1.13
2023-03-03T02:32:51.024Z,1.19
2023-03-03T02:33:54.623Z,1.04
2023-03-03T02:34:56.512Z,1.17
2023-03-03T02:35:59.159Z,1.07
2023-03-03T02:37:03.110Z,1.13
2023-03-03T02:38:20.635Z,1.21
2023-03-03T02:39:26.384Z,1.20
2023-03-03T02:40:32.453Z,1.15
2023-03-03T02:41:44.317Z,1.23
2023-03-03T02:42:48.524Z,1.27
2023-03-03T02:43:54.198Z,1.23
2023-03-03T02:44:56.321Z,0.92
2023-03-03T02:45:58.257Z,1.05
2023-03-03T02:47:00.696Z,1.18
2023-03-03T02:48:02.879Z,0.95
2023-03-03T02:49:07.018Z,1.08
2023-03-03T02:50:10.778Z,0.99
2023-03-03T02:51:13.003Z,0.87
2023-03-03T02:52:15.044Z,0.93
2023-03-03T02:53:17.318Z,0.93
2023-03-03T02:54:21.268Z,0.96
2023-03-03T02:55:23.314Z,0.87
2023-03-03T02:56:26.255Z,0.89
2023-03-03T02:57:28.722Z,0.68
2023-03-03T02:58:31.353Z,0.88
2023-03-03T02:59:33.519Z,0.97
2023-03-03T03:00:35.563Z,0.92
2023-03-03T03:01:39.090Z,1.00
2023-03-03T03:02:40.993Z,0.84
2023-03-03T03:03:43.970Z,0.85
2023-03-03T03:04:46.486Z,0.89
2023-03-03T03:05:48.527Z,0.99
2023-03-03T03:06:52.768Z,0.98
2023-03-03T03:07:54.768Z,0.98
2023-03-03T03:08:56.647Z,1.02
2023-03-03T03:09:58.569Z,1.07
2023-03-03T03:11:00.566Z,1.00
2023-03-03T03:12:02.713Z,0.95
2023-03-03T03:13:04.711Z,1.01
2023-03-03T03:14:09.125Z,0.73
2023-03-03T03:15:11.427Z,0.84
2023-03-03T03:16:13.976Z,0.96
2023-03-03T03:17:16.062Z,1.01
2023-03-03T03:18:18.488Z,1.08
2023-03-03T03:19:20.849Z,1.09
2023-03-03T03:20:23.305Z,0.95
2023-03-03T03:21:25.748Z,0.96
2023-03-03T03:22:27.632Z,0.83
2023-03-03T03:23:29.627Z,0.93
2023-03-03T03:24:31.974Z,0.88
2023-03-03T03:25:34.079Z,0.85
2023-03-03T03:26:36.662Z,0.83
2023-03-03T03:27:38.726Z,0.97
2023-03-03T03:28:40.634Z,1.05
2023-03-03T03:29:42.693Z,1.07
2023-03-03T03:30:46.653Z,1.13
2023-03-03T03:31:48.721Z,1.09
2023-03-03T03:32:50.899Z,0.99
2023-03-03T03:33:52.792Z,1.01
2023-03-03T03:34:54.785Z,1.11
2023-03-03T03:35:58.628Z,0.85
2023-03-03T03:37:00.849Z,0.81
2023-03-03T03:38:03.122Z,0.86
2023-03-03T03:39:05.294Z,0.90
2023-03-03T03:40:09.052Z,0.98
2023-03-03T03:41:12.249Z,1.03
2023-03-03T03:42:14.374Z,1.08
2023-03-03T03:43:16.454Z,0.91
2023-03-03T03:44:18.764Z,0.89
2023-03-03T03:45:21.222Z,0.98
2023-03-03T03:46:23.572Z,1.02
2023-03-03T03:47:25.618Z,1.02
2023-03-03T03:48:28.205Z,0.95
2023-03-03T03:49:31.206Z,0.90
2023-03-03T03:50:33.281Z,0.95
2023-03-03T03:51:35.300Z,0.87
2023-03-03T03:52:37.747Z,1.01
2023-03-03T03:53:39.721Z,0.86
2023-03-03T03:54:42.695Z,0.99
2023-03-03T03:55:45.803Z,1.05
2023-03-03T03:56:47.808Z,1.11
2023-03-03T03:57:50.387Z,0.82
2023-03-03T03:58:52.372Z,0.86
2023-03-03T03:59:54.533Z,0.93
2023-03-03T04:01:02.693Z,1.03
2023-03-03T04:02:04.855Z,0.96
2023-03-03T04:03:08.217Z,0.83
2023-03-03T04:04:10.613Z,0.84
2023-03-03T04:05:12.919Z,0.95
2023-03-03T04:06:15.115Z,0.99
2023-03-03T04:07:18.722Z,0.92
2023-03-03T04:08:20.649Z,0.92
2023-03-03T04:09:22.651Z,0.92
2023-03-03T04:10:24.651Z,0.78
2023-03-03T04:11:27.057Z,0.86
2023-03-03T04:12:30.243Z,1.03
2023-03-03T04:13:32.446Z,1.02
2023-03-03T04:14:34.717Z,1.10
2023-03-03T04:15:36.712Z,1.09
2023-03-03T04:16:39.060Z,1.04
2023-03-03T04:17:41.654Z,0.90
2023-03-03T04:18:46.555Z,0.86
2023-03-03T04:19:48.862Z,0.76
2023-03-03T04:20:51.372Z,0.92
2023-03-03T04:21:53.293Z,0.77
2023-03-03T04:22:55.392Z,0.94
2023-03-03T04:23:57.299Z,0.99
2023-03-03T04:25:00.544Z,1.04
2023-03-03T04:26:03.642Z,1.02
2023-03-03T04:27:06.445Z,0.94
2023-03-03T04:28:09.343Z,1.00
2023-03-03T04:29:11.497Z,1.01
2023-03-03T04:30:16.430Z,0.95
2023-03-03T04:31:20.265Z,1.00
2023-03-03T04:32:22.234Z,1.07
2023-03-03T04:33:24.616Z,1.01
2023-03-03T04:34:26.958Z,0.99
2023-03-03T04:35:29.041Z,0.84
2023-03-03T04:36:31.602Z,0.99
2023-03-03T04:37:34.074Z,0.93
2023-03-03T04:38:36.088Z,1.03
2023-03-03T04:39:38.001Z,0.84
2023-03-03T04:40:41.702Z,0.87
2023-03-03T04:41:43.920Z,1.02
2023-03-03T04:42:46.364Z,1.02
2023-03-03T04:43:48.361Z,1.01
2023-03-03T04:44:50.249Z,1.00
2023-03-03T04:45:52.497Z,1.03
2023-03-03T04:46:54.547Z,1.06
2023-03-03T04:47:56.426Z,1.11
2023-03-03T04:48:58.523Z,1.07
2023-03-03T04:50:00.802Z,1.13
2023-03-03T04:51:03.907Z,1.15
2023-03-03T04:52:06.047Z,1.07
2023-03-03T04:53:08.158Z,1.15
2023-03-03T04:54:10.240Z,1.20
2023-03-03T04:55:12.229Z,1.23
2023-03-03T04:56:16.866Z,1.24
2023-03-03T04:57:19.077Z,1.14
2023-03-03T04:58:21.665Z,1.22
2023-03-03T04:59:24.334Z,1.15
2023-03-03T05:00:27.186Z,1.22
2023-03-03T05:01:29.149Z,1.24
2023-03-03T05:02:31.086Z,1.17
2023-03-03T05:03:32.991Z,0.96
2023-03-03T05:04:35.892Z,1.09
2023-03-03T05:05:38.348Z,0.88
2023-03-03T05:06:40.376Z,0.90
2023-03-03T05:07:42.510Z,1.06
2023-03-03T05:08:45.724Z,1.11
2023-03-03T05:09:47.635Z,1.18
2023-03-03T05:10:55.517Z,1.20
2023-03-03T05:11:57.448Z,0.99
2023-03-03T05:12:59.438Z,1.02
2023-03-03T05:14:01.644Z,1.16
2023-03-03T05:15:05.570Z,1.17
2023-03-03T05:16:08.591Z,1.14
2023-03-03T05:17:11.469Z,1.14
2023-03-03T05:18:13.371Z,1.19
2023-03-03T05:19:15.261Z,1.21
2023-03-03T05:20:17.636Z,1.30
2023-03-03T05:21:20.458Z,1.30
2023-03-03T05:22:23.170Z,1.28
2023-03-03T05:23:25.064Z,1.30
2023-03-03T05:24:27.282Z,1.39
2023-03-03T05:25:29.178Z,1.42
2023-03-03T05:26:31.201Z,1.46
2023-03-03T05:27:33.119Z,1.48
2023-03-03T05:28:35.048Z,1.54
2023-03-03T05:29:37.189Z,1.44
2023-03-03T05:30:39.656Z,1.44
2023-03-03T05:31:44.009Z,1.39
2023-03-03T05:32:46.445Z,1.30
2023-03-03T05:33:49.140Z,1.27
2023-03-03T05:34:51.980Z,1.22
2023-03-03T05:35:56.814Z,1.35
2023-03-03T05:36:59.100Z,1.48
2023-03-03T05:38:03.105Z,1.54
2023-03-03T05:39:05.392Z,1.57
2023-03-03T05:40:09.525Z,1.69
2023-03-03T05:41:11.449Z,1.67
2023-03-03T05:42:14.187Z,1.74
2023-03-03T05:43:16.922Z,1.67
2023-03-03T05:44:20.682Z,1.51
2023-03-03T05:45:22.885Z,1.67
2023-03-03T05:46:25.099Z,1.77
2023-03-03T05:47:27.057Z,1.84
2023-03-03T05:48:29.643Z,1.90
2023-03-03T05:49:32.110Z,1.91
2023-03-03T05:50:35.300Z,1.88
2023-03-03T05:51:37.195Z,1.95
2023-03-03T05:52:39.279Z,1.98
2023-03-03T05:53:41.852Z,2.05
2023-03-03T05:54:44.435Z,2.06
2023-03-03T05:55:46.356Z,2.16
2023-03-03T05:56:49.239Z,2.13
2023-03-03T05:57:51.240Z,2.15
2023-03-03T05:58:53.223Z,2.18
2023-03-03T05:59:55.261Z,2.19
2023-03-03T06:00:57.464Z,2.22
2023-03-03T06:01:59.367Z,2.23
2023-03-03T06:03:02.967Z,2.23
2023-03-03T06:04:06.233Z,2.28
2023-03-03T06:05:09.091Z,2.28
2023-03-03T06:06:11.450Z,2.29
2023-03-03T06:07:13.533Z,2.32
2023-03-03T06:08:15.448Z,2.30
2023-03-03T06:09:17.433Z,2.13
2023-03-03T06:10:19.948Z,2.25
2023-03-03T06:11:21.965Z,2.33
2023-03-03T06:12:24.081Z,2.40
2023-03-03T06:13:26.521Z,2.41
2023-03-03T06:14:29.910Z,2.45
2023-03-03T06:15:31.842Z,2.49
2023-03-03T06:16:34.700Z,2.28
2023-03-03T06:17:38.404Z,2.39
2023-03-03T06:18:40.301Z,2.24
2023-03-03T06:19:42.260Z,2.26
2023-03-03T06:20:44.229Z,2.39
2023-03-03T06:21:46.579Z,2.47
2023-03-03T06:22:49.078Z,2.29
2023-03-03T06:23:51.053Z,2.35
2023-03-03T06:24:53.034Z,2.35
2023-03-03T06:25:54.939Z,2.28
2023-03-03T06:26:58.478Z,2.41
2023-03-03T06:28:01.337Z,2.55
2023-03-03T06:29:03.361Z,2.67
2023-03-03T06:30:07.833Z,2.72
2023-03-03T06:31:09.738Z,2.82
2023-03-03T06:32:11.889Z,2.88
2023-03-03T06:33:13.998Z,2.91
2023-03-03T06:34:16.172Z,2.89
2023-03-03T06:35:18.230Z,2.90
2023-03-03T06:36:21.180Z,2.95
2023-03-03T06:37:23.074Z,2.85
2023-03-03T06:38:26.124Z,2.93
2023-03-03T06:39:28.753Z,2.96
2023-03-03T06:40:31.016Z,3.01
2023-03-03T06:41:33.276Z,3.02
2023-03-03T06:42:35.289Z,3.07
2023-03-03T06:43:37.850Z,3.08
2023-03-03T06:44:39.744Z,3.09
2023-03-03T06:45:42.049Z,3.18
2023-03-03T06:46:46.693Z,3.15
2023-03-03T06:47:48.627Z,3.10
2023-03-03T06:48:50.510Z,3.11
2023-03-03T06:49:52.383Z,3.07
2023-03-03T06:50:54.690Z,3.19
2023-03-03T06:51:59.548Z,3.23
2023-03-03T06:53:11.455Z,3.27
2023-03-03T06:54:19.264Z,3.36
2023-03-03T06:55:23.020Z,3.31
2023-03-03T06:56:32.512Z,3.24
2023-03-03T06:57:42.083Z,3.19
2023-03-03T06:58:51.703Z,3.19
2023-03-03T07:00:16.037Z,3.31
2023-03-03T07:01:18.096Z,3.37
2023-03-03T07:02:21.536Z,3.43
2023-03-03T07:03:27.253Z,3.45
2023-03-03T07:04:32.906Z,3.44
2023-03-03T07:05:34.936Z,3.41
2023-03-03T07:06:37.250Z,3.39
2023-03-03T07:07:39.239Z,3.35
2023-03-03T07:08:42.178Z,3.42
2023-03-03T07:09:47.159Z,3.37
2023-03-03T07:10:51.584Z,3.47
2023-03-03T07:11:57.609Z,3.36
2023-03-03T07:13:21.479Z,3.25
2023-03-03T07:14:23.417Z,3.27
2023-03-03T07:15:31.912Z,3.27
2023-03-03T07:16:34.478Z,3.45
2023-03-03T07:17:48.448Z,3.44
2023-03-03T07:19:01.539Z,3.27
2023-03-03T07:20:10.296Z,3.45
2023-03-03T07:21:25.097Z,3.59
2023-03-03T07:22:28.555Z,3.59
2023-03-03T07:24:54.095Z,3.61
2023-03-03T07:25:56.075Z,3.65
2023-03-03T07:27:14.302Z,3.71
2023-03-03T07:28:25.290Z,3.83
2023-03-03T07:29:29.436Z,3.78
2023-03-03T07:30:32.860Z,3.50
2023-03-03T07:31:40.360Z,3.59
2023-03-03T07:32:45.233Z,3.71
2023-03-03T07:33:47.738Z,3.81
2023-03-03T07:34:52.456Z,3.67
2023-03-03T07:36:01.749Z,3.59
2023-03-03T07:37:19.418Z,3.70
2023-03-03T07:38:25.177Z,3.79
2023-03-03T07:39:38.334Z,3.64
2023-03-03T07:40:43.600Z,3.64
2023-03-03T07:41:45.692Z,3.93
2023-03-03T07:42:48.127Z,3.74
2023-03-03T07:44:08.764Z,3.71
2023-03-03T07:46:37.031Z,3.95
2023-03-03T07:47:39.916Z,3.96
2023-03-03T07:48:43.236Z,3.99
2023-03-03T07:49:47.384Z,3.79
2023-03-03T07:50:51.308Z,3.97
2023-03-03T07:51:56.388Z,3.97
2023-03-03T07:53:02.153Z,4.14
2023-03-03T07:54:36.905Z,4.26
2023-03-03T07:55:41.544Z,4.36
2023-03-03T07:56:43.831Z,4.24
2023-03-03T07:57:45.843Z,4.40
2023-03-03T07:58:47.987Z,4.42
2023-03-03T07:59:55.929Z,4.55
2023-03-03T08:01:24.702Z,4.59
2023-03-03T08:02:36.188Z,4.07
2023-03-03T08:03:38.824Z,4.09
2023-03-03T08:04:44.847Z,3.86
2023-03-03T08:05:48.895Z,4.07
2023-03-03T08:06:57.730Z,4.14
2023-03-03T08:08:12.452Z,3.93
2023-03-03T08:09:22.311Z,3.93
2023-03-03T08:10:31.160Z,3.88
2023-03-03T08:11:33.814Z,4.25
2023-03-03T08:12:43.197Z,4.34
2023-03-03T08:13:45.797Z,4.44
2023-03-03T08:14:51.094Z,4.53
2023-03-03T08:16:02.869Z,4.41
2023-03-03T08:17:20.813Z,4.30
2023-03-03T08:18:27.484Z,4.30
2023-03-03T08:19:30.653Z,4.23
2023-03-03T08:20:42.511Z,4.42
2023-03-03T08:21:44.437Z,4.44
2023-03-03T08:22:46.362Z,4.44
2023-03-03T08:23:48.760Z,4.53
2023-03-03T08:24:50.770Z,4.69
2023-03-03T08:25:53.656Z,4.23
2023-03-03T08:26:55.908Z,4.44
2023-03-03T08:27:58.007Z,4.44
2023-03-03T08:29:01.495Z,4.32
2023-03-03T08:30:06.516Z,4.18
2023-03-03T08:31:20.308Z,4.43
2023-03-03T08:32:13.566Z,4.60
2023-03-03T08:33:18.005Z,4.43
2023-03-03T08:34:20.029Z,4.18
2023-03-03T08:35:22.141Z,4.38
2023-03-03T08:36:24.226Z,4.30
2023-03-03T08:37:26.275Z,4.33
2023-03-03T08:38:28.563Z,4.19
2023-03-03T08:39:30.611Z,4.04
2023-03-03T08:40:33.803Z,4.19
2023-03-03T08:41:36.005Z,4.14
2023-03-03T08:42:37.996Z,4.12
2023-03-03T08:43:39.980Z,4.02
2023-03-03T08:44:41.871Z,4.17
2023-03-03T08:45:47.058Z,4.36
2023-03-03T08:46:49.562Z,4.47
2023-03-03T08:47:51.775Z,4.62
2023-03-03T08:48:54.513Z,4.50
2023-03-03T08:49:56.388Z,4.56
2023-03-03T08:50:59.744Z,4.60
2023-03-03T08:52:01.658Z,4.79
2023-03-03T08:53:05.336Z,4.74
2023-03-03T08:54:07.812Z,4.61
2023-03-03T08:55:10.411Z,4.60
2023-03-03T08:56:12.594Z,4.68
2023-03-03T08:57:14.474Z,4.62
2023-03-03T08:58:18.928Z,4.73
2023-03-03T08:59:21.732Z,4.60
2023-03-03T09:00:24.890Z,4.67
2023-03-03T09:01:27.542Z,4.57
2023-03-03T09:02:29.584Z,4.55
2023-03-03T09:03:31.592Z,4.54
2023-03-03T09:04:34.054Z,4.50
2023-03-03T09:05:38.252Z,4.53
2023-03-03T09:06:40.635Z,4.77
2023-03-03T09:07:45.488Z,4.71
2023-03-03T09:08:48.662Z,4.74
2023-03-03T09:09:50.745Z,4.90
2023-03-03T09:10:52.925Z,4.86
2023-03-03T09:12:00.696Z,4.91
2023-03-03T09:13:09.533Z,4.66
2023-03-03T09:14:15.825Z,4.66
2023-03-03T09:15:29.380Z,4.58
2023-03-03T09:16:36.357Z,4.87
2023-03-03T09:17:38.673Z,5.05
2023-03-03T09:18:41.599Z,5.15
2023-03-03T09:19:43.722Z,5.27
2023-03-03T09:20:49.194Z,5.00
2023-03-03T09:21:52.858Z,4.80
2023-03-03T09:22:54.722Z,4.86
2023-03-03T09:23:59.062Z,5.06
2023-03-03T09:25:01.554Z,5.16
2023-03-03T09:27:28.522Z,5.14
2023-03-03T09:28:32.017Z,4.87
2023-03-03T09:29:37.824Z,5.14
2023-03-03T09:30:43.719Z,5.33
2023-03-03T09:31:54.063Z,5.41
2023-03-03T09:32:57.607Z,5.20
2023-03-03T09:34:00.525Z,4.77
2023-03-03T09:35:27.479Z,4.88
2023-03-03T09:36:37.906Z,5.15
2023-03-03T09:37:40.923Z,5.15
2023-03-03T09:38:45.278Z,5.35
2023-03-03T09:39:50.378Z,4.99
2023-03-03T09:41:01.942Z,4.77
2023-03-03T09:42:22.805Z,5.12
2023-03-03T09:43:31.532Z,5.36
2023-03-03T09:44:43.370Z,5.56
2023-03-03T09:46:04.125Z,5.66
2023-03-03T09:47:21.054Z,5.14
2023-03-03T09:48:28.886Z,5.11
2023-03-03T09:49:36.805Z,5.01
2023-03-03T09:51:03.641Z,4.98
2023-03-03T09:52:09.500Z,5.18
2023-03-03T09:53:35.008Z,5.08
2023-03-03T09:55:09.410Z,5.16
2023-03-03T09:56:32.250Z,5.16
2023-03-03T09:58:09.959Z,5.18
2023-03-03T09:59:11.492Z,5.13
2023-03-03T10:00:27.425Z,5.39
2023-03-03T10:01:56.026Z,5.37
2023-03-03T10:03:24.608Z,5.14
2023-03-03T10:04:51.404Z,5.29
2023-03-03T10:06:00.093Z,5.25
2023-03-03T10:07:11.804Z,5.14
2023-03-03T10:08:35.138Z,4.77
2023-03-03T10:09:40.879Z,4.82
2023-03-03T10:10:56.117Z,5.06
2023-03-03T10:12:22.966Z,5.06
2023-03-03T10:13:37.879Z,5.49
2023-03-03T10:15:17.469Z,5.54
2023-03-03T10:16:40.215Z,5.31
2023-03-03T10:17:51.226Z,5.31
2023-03-03T10:19:14.902Z,5.51
2023-03-03T10:20:50.707Z,5.63
2023-03-03T10:23:17.127Z,5.75
2023-03-03T10:24:31.224Z,5.59
2023-03-03T10:25:54.938Z,5.80
2023-03-03T10:27:13.100Z,5.80
2023-03-03T10:28:24.088Z,5.73
2023-03-03T10:29:38.982Z,5.66
2023-03-03T10:32:20.849Z,5.44
2023-03-03T10:33:29.654Z,5.56
2023-03-03T10:34:55.197Z,5.47
2023-03-03T10:36:30.784Z,5.74
2023-03-03T10:37:53.370Z,5.58
2023-03-03T10:39:22.151Z,5.87
2023-03-03T10:40:36.521Z,5.93
2023-03-03T10:41:45.889Z,5.55
2023-03-03T10:42:57.327Z,5.66
2023-03-03T10:44:01.099Z,5.89
2023-03-03T10:47:02.352Z,5.62
2023-03-03T10:48:26.687Z,5.65
2023-03-03T10:49:44.762Z,5.71
2023-03-03T10:51:10.672Z,5.75
2023-03-03T10:52:31.259Z,5.71
2023-03-03T10:53:43.119Z,5.55
2023-03-03T10:55:13.209Z,5.60
2023-03-03T10:56:19.078Z,4.99
2023-03-03T10:57:42.929Z,4.99
2023-03-03T10:58:55.012Z,4.80
2023-03-03T11:00:25.174Z,5.10
2023-03-03T11:01:44.613Z,5.01
2023-03-03T11:03:02.177Z,5.05
2023-03-03T11:04:27.443Z,5.33
2023-03-03T11:05:36.740Z,5.18
2023-03-03T11:06:48.219Z,5.41
2023-03-03T11:08:18.421Z,5.11
2023-03-03T11:09:45.092Z,5.23
2023-03-03T11:10:53.779Z,5.29
2023-03-03T11:12:17.597Z,5.17
2023-03-03T11:13:32.606Z,5.07
2023-03-03T11:14:41.296Z,5.28
2023-03-03T11:15:53.200Z,5.23
2023-03-03T11:17:13.604Z,4.85
2023-03-03T11:18:31.372Z,4.83
2023-03-03T11:20:04.138Z,5.19
2023-03-03T11:21:19.471Z,5.19
2023-03-03T11:22:52.338Z,5.16
2023-03-03T11:24:13.295Z,4.87
2023-03-03T11:25:28.272Z,5.05
2023-03-03T11:26:34.279Z,5.22
2023-03-03T11:27:40.960Z,5.26
2023-03-03T11:28:53.443Z,5.20
2023-03-03T11:30:08.167Z,5.36
2023-03-03T11:31:19.537Z,5.33
2023-03-03T11:32:41.215Z,5.24
2023-03-03T11:33:59.439Z,5.33
2023-03-03T11:35:05.291Z,5.35
2023-03-03T11:36:14.310Z,5.17
2023-03-03T11:37:35.266Z,5.30
2023-03-03T11:38:56.410Z,5.58
2023-03-03T11:40:02.181Z,5.72
2023-03-03T11:41:24.869Z,5.71
2023-03-03T11:42:36.674Z,5.26
2023-03-03T11:44:03.807Z,5.07
2023-03-03T11:45:21.815Z,5.20
2023-03-03T11:46:27.698Z,5.33
2023-03-03T11:47:36.211Z,5.31
2023-03-03T11:48:57.006Z,5.51
2023-03-03T11:50:11.575Z,5.53
2023-03-03T11:51:41.935Z,5.60
2023-03-03T11:52:54.929Z,5.54
2023-03-03T11:54:00.658Z,5.57
2023-03-03T11:55:18.789Z,5.61
2023-03-03T11:56:42.189Z,5.63
2023-03-03T11:59:21.608Z,5.73
2023-03-03T12:00:30.390Z,5.69
2023-03-03T12:01:50.916Z,5.46
2023-03-03T12:03:08.908Z,5.41
2023-03-03T12:04:17.372Z,5.11
2023-03-03T12:05:35.436Z,5.21
2023-03-03T12:07:19.298Z,4.96
2023-03-03T12:08:47.002Z,5.20
2023-03-03T12:10:26.545Z,4.99
2023-03-03T12:11:53.964Z,5.12
2023-03-03T12:13:04.732Z,5.23
2023-03-03T12:14:27.448Z,5.27
2023-03-03T12:15:36.607Z,5.20
2023-03-03T12:16:51.972Z,5.19
2023-03-03T12:18:12.918Z,5.22
2023-03-03T12:19:18.706Z,5.26
2023-03-03T12:20:53.569Z,5.29
2023-03-03T12:22:18.858Z,5.24
2023-03-03T12:23:43.019Z,5.33
2023-03-03T12:25:05.765Z,5.29
2023-03-03T12:26:33.598Z,5.16
2023-03-03T12:27:51.664Z,5.21
2023-03-03T12:29:07.056Z,4.98
2023-03-03T12:30:19.917Z,5.00
2023-03-03T12:33:13.185Z,5.19
2023-03-03T12:34:25.139Z,5.19
2023-03-03T12:35:36.997Z,5.27
2023-03-03T12:36:58.542Z,5.29
2023-03-03T12:38:07.312Z,5.28
2023-03-03T12:41:14.272Z,5.29
2023-03-03T12:42:50.818Z,5.04
2023-03-03T12:43:59.946Z,5.13
2023-03-03T12:45:25.343Z,5.15
2023-03-03T12:46:55.561Z,5.04
2023-03-03T12:48:01.995Z,5.10
2023-03-03T12:49:04.747Z,5.15
2023-03-03T12:50:14.342Z,5.15
2023-03-03T12:51:22.576Z,5.16
2023-03-03T12:52:48.302Z,5.17
2023-03-03T12:54:00.459Z,5.09
2023-03-03T12:55:15.429Z,5.15
2023-03-03T12:57:46.945Z,5.03
2023-03-03T12:58:58.333Z,4.91
2023-03-03T13:00:02.238Z,4.90
2023-03-03T13:01:11.235Z,4.98
2023-03-03T13:02:35.339Z,4.83
2023-03-03T13:03:55.313Z,4.96
2023-03-03T13:04:55.470Z,4.98
2023-03-03T13:06:16.125Z,4.98
2023-03-03T13:07:25.271Z,4.81
2023-03-03T13:08:33.769Z,4.90
2023-03-03T13:09:47.672Z,4.99
2023-03-03T13:10:56.696Z,5.04
2023-03-03T13:12:22.289Z,4.90
2023-03-03T13:13:33.979Z,5.03
2023-03-03T13:14:39.775Z,4.94
2023-03-03T13:16:06.554Z,5.01
2023-03-03T13:17:18.667Z,5.06
2023-03-03T13:18:24.435Z,4.92
2023-03-03T13:19:39.496Z,4.82
2023-03-03T13:21:03.814Z,4.60
2023-03-03T13:22:09.516Z,4.80
2023-03-03T13:23:15.190Z,4.69
2023-03-03T13:24:27.107Z,4.85
2023-03-03T13:25:52.502Z,4.92
2023-03-03T13:27:07.250Z,4.89
2023-03-03T13:28:34.660Z,4.86
2023-03-03T13:31:04.444Z,4.87
2023-03-03T13:32:16.053Z,4.84
2023-03-03T13:33:31.066Z,4.83
2023-03-03T13:35:00.967Z,4.84
2023-03-03T13:36:12.745Z,4.90
2023-03-03T13:37:27.715Z,5.02
2023-03-03T13:38:33.223Z,4.99
2023-03-03T13:39:41.682Z,5.03
2023-03-03T13:40:47.747Z,4.93
2023-03-03T13:42:13.381Z,4.93
2023-03-03T13:43:25.294Z,5.04
2023-03-03T13:44:45.534Z,5.14
2023-03-03T13:46:09.587Z,4.91
2023-03-03T13:47:30.416Z,5.09
2023-03-03T13:48:45.602Z,5.16
2023-03-03T13:50:15.608Z,5.08
2023-03-03T13:51:39.394Z,5.17
2023-03-03T13:52:51.152Z,5.13
2023-03-03T13:54:03.109Z,5.11
2023-03-03T13:55:11.351Z,5.01
2023-03-03T13:56:37.040Z,5.04
2023-03-03T13:58:00.149Z,5.15
2023-03-03T13:59:20.700Z,5.15
2023-03-03T14:00:37.566Z,5.10
2023-03-03T14:01:43.363Z,5.09
2023-03-03T14:03:06.957Z,4.99
2023-03-03T14:04:28.070Z,4.95
2023-03-03T14:05:40.129Z,5.05
2023-03-03T14:06:45.948Z,4.84
2023-03-03T14:08:00.897Z,4.95
2023-03-03T14:09:12.260Z,5.05
2023-03-03T14:10:21.127Z,4.73
2023-03-03T14:11:47.855Z,5.03
2023-03-03T14:13:14.978Z,5.09
2023-03-03T14:14:38.865Z,4.87
2023-03-03T14:15:57.040Z,4.90
2023-03-03T14:17:18.110Z,4.90
2023-03-03T14:18:29.474Z,4.67
2023-03-03T14:19:38.125Z,4.83
2023-03-03T14:20:52.203Z,4.78
2023-03-03T14:22:15.977Z,4.77
2023-03-03T14:23:21.861Z,4.53
2023-03-03T14:24:24.043Z,4.53
2023-03-03T14:25:27.035Z,4.70
2023-03-03T14:26:29.633Z,4.73
2023-03-03T14:27:41.208Z,4.65
2023-03-03T14:28:47.932Z,4.80
2023-03-03T14:29:50.198Z,4.63
2023-03-03T14:30:57.799Z,4.57
2023-03-03T14:32:02.771Z,4.69
2023-03-03T14:33:11.741Z,4.72
2023-03-03T14:34:38.357Z,4.78
2023-03-03T14:35:43.537Z,4.74
2023-03-03T14:36:45.725Z,4.57
2023-03-03T14:37:50.297Z,4.61
2023-03-03T14:38:53.783Z,4.69
2023-03-03T14:40:31.546Z,4.78
2023-03-03T14:41:40.633Z,4.83
2023-03-03T14:42:52.527Z,4.76
2023-03-03T14:44:17.791Z,4.60
2023-03-03T14:45:34.742Z,4.64
2023-03-03T14:46:40.355Z,4.66
2023-03-03T14:47:45.900Z,4.60
2023-03-03T14:48:53.222Z,4.59
2023-03-03T14:49:57.783Z,4.60
2023-03-03T14:51:20.341Z,4.54
2023-03-03T14:52:25.726Z,4.59
2023-03-03T14:53:39.757Z,4.48
2023-03-03T14:54:44.847Z,4.31
2023-03-03T14:57:12.700Z,4.33
2023-03-03T14:58:33.787Z,4.39
2023-03-03T14:59:36.119Z,4.36
2023-03-03T15:00:38.424Z,4.27
2023-03-03T15:01:43.670Z,4.31
2023-03-03T15:03:01.003Z,4.01
2023-03-03T15:04:19.459Z,4.01
2023-03-03T15:05:31.788Z,4.05
2023-03-03T15:06:43.372Z,4.02
2023-03-03T15:07:48.893Z,4.02
2023-03-03T15:08:51.565Z,3.98
2023-03-03T15:09:53.650Z,4.03
2023-03-03T15:10:59.737Z,4.06
2023-03-03T15:12:04.624Z,4.10
2023-03-03T15:13:22.586Z,4.01
2023-03-03T15:14:31.360Z,4.04
2023-03-03T15:15:33.420Z,4.09
2023-03-03T15:16:37.980Z,4.12
2023-03-03T15:17:53.268Z,4.13
2023-03-03T15:18:58.942Z,4.12
2023-03-03T15:20:16.302Z,3.99
2023-03-03T15:21:22.107Z,4.11
2023-03-03T15:22:44.458Z,3.95
2023-03-03T15:23:53.088Z,4.00